deformed-offering
Saratoga-Weather Station Historical Data
 
Daily Summary for June 25, 2024 Units:  English    Metric   Both
Daily Weekly Monthly Yearly
  Current: High: Low: Average:
Temperature: 89.2 °F 90.3 °F 64.2 °F 72.6 °F
Dew Point: 54.9 °F 59.3 °F 51.6 °F 55.3 °F
Humidity: 31.4% 73% 29.3% 57%
Wind Speed: 1.8mph 3.3mph 0mph 0.6mph
Wind Gust: 8mph 10.4mph - -
WindNNW - - South
Pressure: 29.85 in 29.87 in 29.82 in -
Precipitation: 0.00 in      
 
 
Tabular Data for June 25, 2024
Time Temperature Dew Point Pressure Wind Wind Speed Wind Gust Humidity Rainfall Rate (Hourly) solar
00:09 67.8 °F 54.1 °F 29.84 in Calm     61.5% 0.00 in 0 W/m2
00:14 67.8 °F 54.3 °F 29.84 in Calm     62% 0.00 in 0 W/m2
00:19 67.6 °F 54.1 °F 29.85 in Calm     62% 0.00 in 0 W/m2
00:24 67.6 °F 54.5 °F 29.85 in Calm     62.7% 0.00 in 0 W/m2
00:29 67.6 °F 54.6 °F 29.85 in Calm     63% 0.00 in 0 W/m2
00:34 67.6 °F 54.9 °F 29.84 in Calm     63.7% 0.00 in 0 W/m2
00:39 67.6 °F 55.4 °F 29.84 in Calm     65% 0.00 in 0 W/m2
00:44 67.5 °F 55.3 °F 29.84 in Calm     65% 0.00 in 0 W/m2
00:49 67.5 °F 55.5 °F 29.84 in Calm     65.6% 0.00 in 0 W/m2
00:54 67.4 °F 55.3 °F 29.84 in Calm     65.3% 0.00 in 0 W/m2
00:59 67.4 °F 55.2 °F 29.84 in Calm     65% 0.00 in 0 W/m2
01:04 67.3 °F 54.8 °F 29.84 in Calm     64.4% 0.00 in 0 W/m2
01:09 67.2 °F 53.8 °F 29.84 in Calm     62.3% 0.00 in 0 W/m2
01:14 67.1 °F 53.3 °F 29.84 in Calm     61.3% 0.00 in 0 W/m2
01:19 67.1 °F 53.9 °F 29.84 in Calm     62.6% 0.00 in 0 W/m2
01:24 67 °F 54 °F 29.83 in Calm     63.1% 0.00 in 0 W/m2
01:29 66.9 °F 53.5 °F 29.83 in Calm     62% 0.00 in 0 W/m2
01:34 66.9 °F 52.8 °F 29.83 in Calm     60.6% 0.00 in 0 W/m2
01:39 66.8 °F 52.3 °F 29.84 in Calm     59.6% 0.00 in 0 W/m2
01:44 66.8 °F 52.1 °F 29.84 in Calm     59.2% 0.00 in 0 W/m2
01:49 66.8 °F 52 °F 29.84 in Calm     59% 0.00 in 0 W/m2
01:54 66.8 °F 51.9 °F 29.83 in Calm     58.9% 0.00 in 0 W/m2
01:59 66.8 °F 52.5 °F 29.83 in Calm     59.9% 0.00 in 0 W/m2
02:04 66.6 °F 51.6 °F 29.83 in Calm     58.5% 0.00 in 0 W/m2
02:09 66.6 °F 51.8 °F 29.83 in Calm     59% 0.00 in 0 W/m2
02:14 66.6 °F 51.9 °F 29.83 in Calm     59.3% 0.00 in 0 W/m2
02:19 66.6 °F 52.5 °F 29.83 in Calm     60.6% 0.00 in 0 W/m2
02:24 66.6 °F 53.2 °F 29.83 in Calm     61.9% 0.00 in 0 W/m2
02:29 66.6 °F 53.5 °F 29.83 in Calm     62.7% 0.00 in 0 W/m2
02:34 66.6 °F 53.6 °F 29.83 in Calm     63.1% 0.00 in 0 W/m2
02:39 66.6 °F 53.8 °F 29.82 in Calm     63.6% 0.00 in 0 W/m2
02:44 66.6 °F 54.1 °F 29.82 in Calm     64.3% 0.00 in 0 W/m2
02:49 66.6 °F 54 °F 29.82 in Calm     64.1% 0.00 in 0 W/m2
02:54 66.6 °F 54.3 °F 29.82 in Calm     64.6% 0.00 in 0 W/m2
02:59 66.7 °F 54.4 °F 29.82 in Calm     64.8% 0.00 in 0 W/m2
03:04 66.6 °F 54 °F 29.82 in Calm     64% 0.00 in 0 W/m2
03:09 66.6 °F 53.8 °F 29.82 in Calm     63.5% 0.00 in 0 W/m2
03:14 66.6 °F 53.8 °F 29.82 in Calm     63.4% 0.00 in 0 W/m2
03:19 66.6 °F 54.1 °F 29.82 in Calm     64.2% 0.00 in 0 W/m2
03:24 66.4 °F 53.9 °F 29.82 in Calm     64.1% 0.00 in 0 W/m2
03:29 66.4 °F 53.8 °F 29.82 in Calm     64% 0.00 in 0 W/m2
03:34 66.4 °F 53.8 °F 29.82 in Calm     64% 0.00 in 0 W/m2
03:39 66.4 °F 54.2 °F 29.83 in Calm     64.9% 0.00 in 0 W/m2
03:44 66.4 °F 54.2 °F 29.82 in Calm     64.8% 0.00 in 0 W/m2
03:49 66.4 °F 54.3 °F 29.82 in Calm     65.1% 0.00 in 0 W/m2
03:54 66.4 °F 54.3 °F 29.82 in Calm     65.1% 0.00 in 0 W/m2
03:59 66.4 °F 54.5 °F 29.82 in Calm     65.4% 0.00 in 0 W/m2
04:04 66.4 °F 54.7 °F 29.83 in Calm     66% 0.00 in 0 W/m2
04:09 66.4 °F 54.7 °F 29.83 in Calm     66% 0.00 in 0 W/m2
04:14 66.3 °F 54.6 °F 29.83 in Calm     66% 0.00 in 0 W/m2
04:19 66.3 °F 54.4 °F 29.83 in Calm     65.6% 0.00 in 0 W/m2
04:24 66.3 °F 54.4 °F 29.83 in Calm     65.4% 0.00 in 0 W/m2
04:29 66.3 °F 54.6 °F 29.83 in Calm     66% 0.00 in 0 W/m2
04:34 66.2 °F 54.5 °F 29.83 in Calm     66% 0.00 in 0 W/m2
04:39 66.2 °F 54.5 °F 29.83 in Calm     66% 0.00 in 0 W/m2
04:44 66.1 °F 54.1 °F 29.83 in Calm     65.2% 0.00 in 0 W/m2
04:49 66.1 °F 54.2 °F 29.83 in Calm     65.4% 0.00 in 0 W/m2
04:54 66.1 °F 54.2 °F 29.83 in Calm     65.7% 0.00 in 0 W/m2
04:59 66 °F 54 °F 29.83 in Calm     65.2% 0.00 in 0 W/m2
05:04 66 °F 54.3 °F 29.83 in Calm     66% 0.00 in 0 W/m2
05:09 65.8 °F 54.1 °F 29.82 in Calm     66% 0.00 in 0 W/m2
05:14 65.8 °F 54.1 °F 29.82 in Calm     66.2% 0.00 in 0 W/m2
05:19 65.6 °F 53.9 °F 29.82 in Calm     66% 0.00 in 0 W/m2
05:24 65.6 °F 53.9 °F 29.83 in Calm     66% 0.00 in 0 W/m2
05:29 65.5 °F 53.8 °F 29.83 in Calm     66% 0.00 in 0 W/m2
05:34 65.4 °F 53.7 °F 29.83 in Calm     66% 0.00 in 0 W/m2
05:39 65.2 °F 53.6 °F 29.83 in Calm     66% 0.00 in 0 W/m2
05:44 65.1 °F 53.5 °F 29.83 in Calm     65.9% 0.00 in 0 W/m2
05:49 65 °F 52.9 °F 29.83 in Calm     65% 0.00 in 0 W/m2
05:54 64.8 °F 52.8 °F 29.83 in Calm     65% 0.00 in 5 W/m2
05:59 64.7 °F 52.7 °F 29.83 in Calm     65% 0.00 in 7 W/m2
06:04 64.5 °F 52.5 °F 29.83 in Calm     65% 0.00 in 11 W/m2
06:09 64.3 °F 52.3 °F 29.84 in Calm     65% 0.00 in 12 W/m2
06:14 64.2 °F 52.3 °F 29.84 in Calm     65.3% 0.00 in 23 W/m2
06:19 64.2 °F 52.6 °F 29.84 in Calm     66% 0.00 in 65 W/m2
06:24 64.2 °F 52.8 °F 29.84 in Calm     66.6% 0.00 in 91 W/m2
06:29 64.2 °F 53 °F 29.84 in Calm     67% 0.00 in 111 W/m2
06:34 64.2 °F 53 °F 29.84 in Calm     67% 0.00 in 127 W/m2
06:39 64.2 °F 53.4 °F 29.84 in Calm     67.9% 0.00 in 125 W/m2
06:44 64.3 °F 53.5 °F 29.84 in Calm     68% 0.00 in 123 W/m2
06:49 64.5 °F 53.7 °F 29.84 in Calm     68% 0.00 in 118 W/m2
06:54 64.6 °F 53.8 °F 29.84 in Calm     68.2% 0.00 in 111 W/m2
06:59 64.7 °F 54.3 °F 29.84 in Calm     68.9% 0.00 in 116 W/m2
07:04 64.9 °F 54.5 °F 29.85 in Calm     69.1% 0.00 in 146 W/m2
07:09 65.1 °F 55 °F 29.85 in Calm     69.8% 0.00 in 252 W/m2
07:14 65.4 °F 55.7 °F 29.85 in Calm     70.7% 0.00 in 252 W/m2
07:19 65.6 °F 55.6 °F 29.85 in Calm     70.3% 0.00 in 266 W/m2
07:24 65.7 °F 56.1 °F 29.85 in Calm     71.2% 0.00 in 266 W/m2
07:29 66 °F 56.7 °F 29.85 in Calm     72% 0.00 in 109 W/m2
07:34 66.1 °F 56.8 °F 29.85 in Calm     72% 0.00 in 121 W/m2
07:39 66.3 °F 57.1 °F 29.85 in Calm     72.2% 0.00 in 146 W/m2
07:44 66.5 °F 57.6 °F 29.85 in Calm     73% 0.00 in 155 W/m2
07:49 66.8 °F 57.9 °F 29.85 in Calm     73% 0.00 in 197 W/m2
07:54 66.9 °F 58 °F 29.85 in Calm     73% 0.00 in 208 W/m2
07:59 67.1 °F 58 °F 29.86 in Calm     72.5% 0.00 in 162 W/m2
08:04 67.3 °F 57.8 °F 29.86 in Calm     71.5% 0.00 in 398 W/m2
08:09 67.4 °F 57.7 °F 29.85 in Calm     71.2% 0.00 in 412 W/m2
08:14 67.5 °F 57.8 °F 29.86 in Calm     71% 0.00 in 412 W/m2
08:19 67.7 °F 58 °F 29.86 in Calm     71% 0.00 in 139 W/m2
08:24 67.8 °F 58.1 °F 29.85 in Calm     71% 0.00 in 118 W/m2
08:29 67.9 °F 58.1 °F 29.85 in Calm     70.9% 0.00 in 130 W/m2
08:34 68 °F 58 °F 29.86 in Calm     70.3% 0.00 in 135 W/m2
08:39 68.2 °F 58.2 °F 29.86 in Calm     70.6% 0.00 in 135 W/m2
08:44 68.3 °F 58.1 °F 29.86 in Calm     70% 0.00 in 157 W/m2
08:49 68.4 °F 58.2 °F 29.86 in Calm     70% 0.00 in 179 W/m2
08:54 68.5 °F 58.1 °F 29.87 in Calm     69.4% 0.00 in 148 W/m2
08:59 68.6 °F 58 °F 29.86 in Calm     69% 0.00 in 139 W/m2
09:04 68.8 °F 58.2 °F 29.87 in Calm     68.9% 0.00 in 148 W/m2
09:09 68.9 °F 58.2 °F 29.87 in Calm     68.9% 0.00 in 252 W/m2
09:14 69.1 °F 58.5 °F 29.86 in Calm     69.2% 0.00 in 635 W/m2
09:19 69.2 °F 58.9 °F 29.86 in Calm     69.8% 0.00 in 751 W/m2
09:24 69.5 °F 59.3 °F 29.86 in Calm     70% 0.00 in 721 W/m2
09:29 69.7 °F 58.9 °F 29.86 in Calm     68.4% 0.00 in 707 W/m2
09:34 70.1 °F 58.2 °F 29.86 in NE 0.3 mph 4 mph 66.1% 0.00 in 774 W/m2
09:39 70.6 °F 57.8 °F 29.86 in NE 1.7 mph 5 mph 64.1% 0.00 in 841 W/m2
09:44 71.1 °F 57.9 °F 29.86 in NE 0.8 mph 5 mph 63% 0.00 in 841 W/m2
09:49 71.5 °F 57.7 °F 29.86 in NNE 0.7 mph 3 mph 61.7% 0.00 in 274 W/m2
09:54 71.9 °F 56.7 °F 29.86 in NW 1.1 mph 3.5 mph 58.7% 0.00 in 765 W/m2
09:59 72.4 °F 57.6 °F 29.86 in WNW 0.6 mph 5 mph 59.7% 0.00 in 725 W/m2
10:04 72.8 °F 57.2 °F 29.86 in NE 1.5 mph 5 mph 58.1% 0.00 in 723 W/m2
10:09 73.4 °F 56.9 °F 29.86 in NNE 1.3 mph 4 mph 56.3% 0.00 in 723 W/m2
10:14 73.9 °F 57.2 °F 29.86 in NNE 0.8 mph 5 mph 56% 0.00 in 734 W/m2
10:19 74.5 °F 57.4 °F 29.86 in North 0.9 mph 5 mph 55.2% 0.00 in 739 W/m2
10:24 75 °F 56.5 °F 29.86 in NNE 0.9 mph 4 mph 52.7% 0.00 in 743 W/m2
10:29 75.4 °F 56.7 °F 29.85 in NNW 0.8 mph 3.5 mph 52.2% 0.00 in 760 W/m2
10:34 75.9 °F 56.3 °F 29.85 in NNE 1.3 mph 5 mph 50.6% 0.00 in 788 W/m2
10:39 76.3 °F 56.3 °F 29.86 in NE 1.6 mph 5 mph 50.1% 0.00 in 797 W/m2
10:44 76.7 °F 56.2 °F 29.86 in NE 1 mph 5 mph 49.2% 0.00 in 806 W/m2
10:49 77 °F 56.1 °F 29.85 in North 0.6 mph 3 mph 48.6% 0.00 in 862 W/m2
10:54 77.4 °F 55.5 °F 29.86 in NNE 0.7 mph 3.5 mph 46.8% 0.00 in 216 W/m2
10:59 77.7 °F 55.3 °F 29.86 in NE 0.8 mph 3.5 mph 46.1% 0.00 in 486 W/m2
11:04 78 °F 55.6 °F 29.86 in ENE 0.5 mph 3 mph 46.2% 0.00 in 889 W/m2
11:09 78.3 °F 55.2 °F 29.86 in East 0.2 mph 2.3 mph 45% 0.00 in 889 W/m2
11:14 78.6 °F 55.3 °F 29.86 in NE 1.1 mph 3.5 mph 44.7% 0.00 in 906 W/m2
11:19 79.1 °F 55.3 °F 29.86 in NE 1.9 mph 6 mph 44% 0.00 in 926 W/m2
11:24 79.6 °F 55.3 °F 29.86 in North 1.2 mph 6 mph 43.2% 0.00 in 1010 W/m2
11:29 80 °F 55 °F 29.86 in NNW 0.6 mph 3 mph 42.2% 0.00 in 987 W/m2
11:34 80.5 °F 55.4 °F 29.86 in NE 1.2 mph 5 mph 42.1% 0.00 in 975 W/m2
11:39 81.1 °F 55.6 °F 29.86 in NNE 0.7 mph 5 mph 41.6% 0.00 in 1006 W/m2
11:44 81.7 °F 55.2 °F 29.86 in NNE 0.6 mph 3 mph 40.3% 0.00 in 1006 W/m2
11:49 82.2 °F 55.9 °F 29.86 in NE 1.8 mph 6 mph 40.6% 0.00 in 1006 W/m2
11:54 82.6 °F 55.7 °F 29.86 in West 0.5 mph 6 mph 39.8% 0.00 in 874 W/m2
11:59 83.1 °F 55.8 °F 29.86 in NE 1.9 mph 5 mph 39.3% 0.00 in 1026 W/m2
12:04 83.6 °F 54.4 °F 29.86 in North 1.4 mph 5 mph 36.8% 0.00 in 1084 W/m2
12:09 84.1 °F 54.5 °F 29.86 in NE 1 mph 4 mph 36.4% 0.00 in 1084 W/m2
12:14 84.5 °F 56.3 °F 29.86 in ENE 1.4 mph 4 mph 38.2% 0.00 in 1084 W/m2
12:19 85 °F 56.7 °F 29.86 in ENE 1.5 mph 5 mph 38.3% 0.00 in 978 W/m2
12:24 85.4 °F 56.9 °F 29.86 in NNE 2.6 mph 6 mph 37.9% 0.00 in 978 W/m2
12:29 85.8 °F 56.4 °F 29.86 in NE 1.8 mph 6 mph 36.8% 0.00 in 975 W/m2
12:34 86.3 °F 57.1 °F 29.86 in ENE 1.2 mph 6 mph 37.2% 0.00 in 1019 W/m2
12:39 86.7 °F 55.1 °F 29.86 in North 1.8 mph 6 mph 34.2% 0.00 in 1026 W/m2
12:44 87.2 °F 55 °F 29.85 in NW 1.2 mph 6 mph 33.4% 0.00 in 955 W/m2
12:49 87.6 °F 58.4 °F 29.85 in ENE 1.2 mph 3.5 mph 37.5% 0.00 in 936 W/m2
12:54 87.9 °F 57.5 °F 29.85 in NNW 2.1 mph 6 mph 36.1% 0.00 in 920 W/m2
12:59 88.3 °F 54.7 °F 29.85 in North 1.3 mph 6 mph 32% 0.00 in 920 W/m2
13:04 88.6 °F 54.9 °F 29.85 in NW 1.3 mph 5 mph 31.9% 0.00 in 1017 W/m2
13:09 88.9 °F 55.3 °F 29.85 in North 1.9 mph 6 mph 32.2% 0.00 in 1017 W/m2
13:14 89.1 °F 55.5 °F 29.85 in North 2.1 mph 6 mph 32.1% 0.00 in 646 W/m2
13:19 89.4 °F 55.7 °F 29.85 in NNW 1.5 mph 5 mph 32.1% 0.00 in 663 W/m2
13:24 89.6 °F 56.2 °F 29.85 in North 2.7 mph 6 mph 32.5% 0.00 in 663 W/m2
13:29 89.7 °F 56.2 °F 29.85 in North 2.6 mph 7 mph 32.3% 0.00 in 611 W/m2
13:34 89.8 °F 56.5 °F 29.85 in North 1.7 mph 7 mph 32.6% 0.00 in 450 W/m2
13:39 89.9 °F 56.2 °F 29.85 in NNW 2.3 mph 6 mph 32.2% 0.00 in 498 W/m2
13:44 89.9 °F 56.3 °F 29.85 in North 2.7 mph 7 mph 32.3% 0.00 in 428 W/m2
13:49 89.8 °F 56.4 °F 29.85 in NNW 2.1 mph 7 mph 32.5% 0.00 in 1133 W/m2
13:54 89.9 °F 56.1 °F 29.85 in North 2.2 mph 7 mph 32% 0.00 in 1133 W/m2
13:59 89.9 °F 55.8 °F 29.85 in North 2.9 mph 10 mph 31.6% 0.00 in 663 W/m2
14:04 89.9 °F 54.6 °F 29.85 in North 3.3 mph 10.4 mph 30.3% 0.00 in 713 W/m2
14:09 90 °F 53.9 °F 29.85 in North 2.6 mph 8 mph 29.4% 0.00 in 1057 W/m2
14:14 90.1 °F 53.9 °F 29.85 in North 2.2 mph 7 mph 29.3% 0.00 in 1200 W/m2
14:19 90.3 °F 54.8 °F 29.85 in North 3.3 mph 9.2 mph 30.2% 0.00 in 721 W/m2
14:24 90.3 °F 55.8 °F 29.85 in NNW 3.2 mph 9 mph 31.3% 0.00 in 449 W/m2
14:29 90.3 °F 57.1 °F 29.85 in North 2.4 mph 7 mph 32.7% 0.00 in 443 W/m2
14:34 90.1 °F 57.6 °F 29.85 in NNW 2.4 mph 7 mph 33.6% 0.00 in 482 W/m2
14:39 89.9 °F 57.8 °F 29.85 in NNW 2.3 mph 8.1 mph 34% 0.00 in 482 W/m2
14:44 89.7 °F 57.7 °F 29.85 in North 1.9 mph 8 mph 34.1% 0.00 in 1112 W/m2
14:49 89.5 °F 56.5 °F 29.85 in NNW 1.8 mph 5 mph 32.9% 0.00 in 1112 W/m2
14:54 89.4 °F 55.8 °F 29.85 in NNW 2.7 mph 8.1 mph 32.2% 0.00 in 1063 W/m2
14:59 89.2 °F 54.9 °F 29.85 in NNW 1.8 mph 8 mph 31.4% 0.00 in 1063 W/m2
Saratoga, California, USA
Compliments of Weather Underground - 2 mb

WU-history PHP script courtesy of Juneau County Weather and modified for WU/TWC API use by Saratoga-weather.org

This script set is available on GitHub.

deformed-offering